Time;durP1;ratioP1;P1;durP2;ratioP2;P2;SDS_P1;SDS_P2;PMS_P1;PMS_P2;Temp;Humidity;BMP_temperature;BMP_pressure;BME280_temperature;BME280_humidity;BME280_pressure;Samples;Min_cycle;Max_cycle;Signal;HPM_P1;HPM_P2
2023/11/12 00:02:13;;;;;;;;;;;;;;;-144.99;100.00;52580.59;5052380;28;19936;-63
2023/11/12 00:04:40;;;;;;;;;;;;;;;-144.99;100.00;52586.69;5042749;28;19929;-64
2023/11/12 00:07:08;;;;;;;;;;;;;;;-144.99;100.00;52594.84;5049770;28;20373;-65
2023/11/12 00:09:35;;;;;;;;;;;;;;;-144.99;100.00;52586.69;5045783;28;20401;-64
2023/11/12 00:12:02;;;;;;;;;;;;;;;-144.99;100.00;52590.78;5054349;28;19929;-64
2023/11/12 00:14:28;;;;;;;;;;;;;;;-144.99;100.00;52594.84;5045436;28;19925;-64
2023/11/12 00:16:55;;;;;;;;;;;;;;;-144.99;100.00;52603.00;5037182;28;20000;-75
2023/11/12 00:19:22;;;;;;;;;;;;;;;-144.99;100.00;52547.97;5040685;28;19936;-68
2023/11/12 00:21:48;;;;;;;;;;;;;;;-144.99;100.00;52615.25;5062137;28;19950;-69
2023/11/12 00:24:17;;;;;;;;;;;;;;;-144.99;100.00;52623.38;5056659;28;20078;-69
2023/11/12 00:26:44;;;;;;;;;;;;;;;-144.99;100.00;52615.25;5047150;28;19954;-69
2023/11/12 00:29:10;;;;;;;;;;;;;;;-144.99;100.00;52594.84;5043484;28;20016;-69
2023/11/12 00:31:37;;;;;;;;;;;;;;;-144.99;100.00;52570.38;5052462;28;19973;-69
2023/11/12 00:34:03;;;;;;;;;;;;;;;-144.99;100.00;52607.09;5044879;28;19935;-69
2023/11/12 00:36:30;;;;;;;;;;;;;;;-144.99;100.00;52578.53;5046394;28;19983;-69
2023/11/12 00:38:56;;;;;;;;;;;;;;;-144.99;100.00;52613.19;5038105;28;19924;-68
2023/11/12 00:41:24;;;;;;;;;;;;;;;-144.99;100.00;52578.53;5039653;28;19989;-67
2023/11/12 00:43:51;;;;;;;;;;;;;;;-144.99;100.00;52615.25;5039101;28;20508;-68
2023/11/12 00:46:18;;;;;;;;;;;;;;;-144.99;100.00;52566.31;5038263;28;19976;-67
2023/11/12 00:48:44;;;;;;;;;;;;;;;-144.99;100.00;52590.78;5039075;28;20045;-70
2023/11/12 00:51:11;;;;;;;;;;;;;;;-144.99;100.00;52594.84;5039470;28;20015;-70
2023/11/12 00:53:38;;;;;;;;;;;;;;;-144.99;100.00;52586.69;5038257;28;20005;-70
2023/11/12 00:56:06;;;;;;;;;;;;;;;-144.99;100.00;52574.47;5037192;28;20031;-69
2023/11/12 00:58:34;;;;;;;;;;;;;;;-144.99;100.00;52603.00;5037812;28;20019;-69
2023/11/12 01:01:00;;;;;;;;;;;;;;;-144.99;100.00;52570.38;5039708;28;19932;-73
2023/11/12 01:03:32;;;;;;;;;;;;;;;-144.99;100.00;52623.38;5039820;28;20064;-74
2023/11/12 01:05:58;;;;;;;;;;;;;;;-144.99;100.00;52594.84;5047368;28;19990;-77
2023/11/12 01:08:25;;;;;;;;;;;;;;;-144.99;100.00;52590.78;5056939;28;19964;-76
2023/11/12 01:10:53;;;;;;;;;;;;;;;-144.99;100.00;52603.00;5050110;28;19964;-76
2023/11/12 01:13:19;;;;;;;;;;;;;;;-144.99;100.00;52598.94;5060771;28;19937;-76
2023/11/12 01:15:47;;;;;;;;;;;;;;;-144.99;100.00;52568.34;5043110;28;20006;-76
2023/11/12 01:18:14;;;;;;;;;;;;;;;-144.99;100.00;52611.16;5039080;28;19993;-77
2023/11/12 01:20:41;;;;;;;;;;;;;;;-144.99;100.00;52584.66;5038367;28;19937;-76
2023/11/12 01:23:07;;;;;;;;;;;;;;;-144.99;100.00;52580.59;5041118;28;19964;-75
2023/11/12 01:25:34;;;;;;;;;;;;;;;-144.99;100.00;52578.53;5042156;28;19998;-76
2023/11/12 01:28:02;;;;;;;;;;;;;;;-144.99;100.00;52590.78;4692990;28;10000294;-77
2023/11/12 01:30:28;;;;;;;;;;;;;;;-144.99;100.00;52578.53;5039861;28;19932;-77
2023/11/12 01:32:56;;;;;;;;;;;;;;;-144.99;100.00;52566.31;5054754;28;20024;-76
2023/11/12 01:35:23;;;;;;;;;;;;;;;-144.99;100.00;52586.69;5042411;28;19929;-77
2023/11/12 01:37:49;;;;;;;;;;;;;;;-144.99;100.00;52615.25;5040687;28;20414;-78
2023/11/12 01:40:16;;;;;;;;;;;;;;;-144.99;100.00;52592.81;5042646;28;19994;-65
2023/11/12 01:42:42;;;;;;;;;;;;;;;-144.99;100.00;52594.84;5039123;28;19929;-64
2023/11/12 01:45:10;;;;;;;;;;;;;;;-144.99;100.00;52594.84;5040962;28;19960;-64
2023/11/12 01:47:37;;;;;;;;;;;;;;;-144.99;100.00;52598.94;5040234;28;20480;-64
2023/11/12 01:50:07;;;;;;;;;;;;;;;-144.99;100.00;52586.69;5044116;28;20024;-65
2023/11/12 01:52:34;;;;;;;;;;;;;;;-144.99;100.00;52590.78;5046828;28;19925;-65
2023/11/12 01:55:01;;;;;;;;;;;;;;;-144.99;100.00;52586.69;5074541;22;19978;-70
2023/11/12 01:57:28;;;;;;;;;;;;;;;-144.99;100.00;52586.69;5084725;28;20018;-69
2023/11/12 01:59:54;;;;;;;;;;;;;;;-144.99;100.00;52554.09;5085738;28;19931;-70
2023/11/12 02:02:21;;;;;;;;;;;;;;;-144.99;100.00;52568.34;5091843;28;20007;-71
2023/11/12 02:04:49;;;;;;;;;;;;;;;-144.99;100.00;52623.38;5086880;28;19931;-71
2023/11/12 02:07:18;;;;;;;;;;;;;;;-144.99;100.00;52584.66;5068903;28;19925;-71
2023/11/12 02:09:45;;;;;;;;;;;;;;;-144.99;100.00;52590.78;5070728;28;19958;-70
2023/11/12 02:12:13;;;;;;;;;;;;;;;-144.99;100.00;52558.16;5070203;28;20331;-71
2023/11/12 02:14:39;;;;;;;;;;;;;;;-144.99;100.00;52562.25;5070515;28;19924;-69
2023/11/12 02:17:06;;;;;;;;;;;;;;;-144.99;100.00;52586.69;5069323;28;19924;-71
2023/11/12 02:19:32;;;;;;;;;;;;;;;-144.99;100.00;52566.31;5072088;28;19960;-71
2023/11/12 02:21:59;;;;;;;;;;;;;;;-144.99;100.00;52607.09;5072069;28;20010;-71
2023/11/12 02:24:27;;;;;;;;;;;;;;;-144.99;100.00;52619.31;5082587;28;20024;-69
2023/11/12 02:26:54;;;;;;;;;;;;;;;-144.99;100.00;52586.69;5088707;28;19923;-72
2023/11/12 02:29:21;;;;;;;;;;;;;;;-144.99;100.00;52586.69;5102150;28;19927;-71
2023/11/12 02:31:48;;;;;;;;;;;;;;;-144.99;100.00;52582.63;5097324;28;19932;-71
2023/11/12 02:34:14;;;;;;;;;;;;;;;-144.99;100.00;52574.47;5080718;28;19937;-69
2023/11/12 02:36:41;;;;;;;;;;;;;;;-144.99;100.00;52598.94;5071819;28;20218;-68
2023/11/12 02:39:09;;;;;;;;;;;;;;;-144.99;100.00;52562.25;5072765;28;19940;-70
2023/11/12 02:41:38;;;;;;;;;;;;;;;-144.99;100.00;52582.63;5073507;28;19942;-69
2023/11/12 02:44:07;;;;;;;;;;;;;;;-144.99;100.00;52603.00;5074384;28;19963;-71
2023/11/12 02:46:34;;;;;;;;;;;;;;;-144.99;100.00;52603.00;5081256;28;19921;-70
2023/11/12 02:49:09;;;;;;;;;;;;;;;-144.99;100.00;52619.31;5069983;28;19929;-70
2023/11/12 02:51:35;;;;;;;;;;;;;;;-144.99;100.00;52598.94;5069190;28;20008;-70
2023/11/12 02:54:03;;;;;;;;;;;;;;;-144.99;100.00;52594.84;5068913;28;19928;-70
2023/11/12 02:56:29;;;;;;;;;;;;;;;-144.99;100.00;52558.16;5064063;28;19975;-71
2023/11/12 02:58:57;;;;;;;;;;;;;;;-144.99;100.00;52550.00;5064871;28;19935;-70
2023/11/12 03:01:24;;;;;;;;;;;;;;;-144.99;100.00;52566.31;5063937;28;19991;-70
2023/11/12 03:03:51;;;;;;;;;;;;;;;-144.99;100.00;52582.63;5065023;28;19930;-71
2023/11/12 03:06:18;;;;;;;;;;;;;;;-144.99;100.00;52570.38;5064064;28;19925;-71
2023/11/12 03:08:44;;;;;;;;;;;;;;;-144.99;100.00;52568.34;5062591;28;19924;-71
2023/11/12 03:11:12;;;;;;;;;;;;;;;-144.99;100.00;52598.94;5065676;28;19984;-71
2023/11/12 03:13:38;;;;;;;;;;;;;;;-144.99;100.00;52615.25;5064863;28;19948;-70
2023/11/12 03:16:07;;;;;;;;;;;;;;;-144.99;100.00;52574.47;5063700;28;19928;-71
2023/11/12 03:18:33;;;;;;;;;;;;;;;-144.99;100.00;52603.00;5062759;28;20427;-70
2023/11/12 03:20:59;;;;;;;;;;;;;;;-144.99;100.00;52570.38;5064465;28;20592;-69
2023/11/12 03:23:26;;;;;;;;;;;;;;;-144.99;100.00;52603.00;5063957;28;20027;-69
2023/11/12 03:25:52;;;;;;;;;;;;;;;-144.99;100.00;52578.53;5063144;28;19952;-70
2023/11/12 03:28:19;;;;;;;;;;;;;;;-144.99;100.00;52582.63;5063845;28;19932;-71
2023/11/12 03:30:45;;;;;;;;;;;;;;;-144.99;100.00;52588.75;5063176;28;19999;-71
2023/11/12 03:33:13;;;;;;;;;;;;;;;-144.99;100.00;52598.94;5070458;28;20148;-70
2023/11/12 03:35:40;;;;;;;;;;;;;;;-144.99;100.00;52605.03;5064315;28;19959;-70
2023/11/12 03:38:07;;;;;;;;;;;;;;;-144.99;100.00;52545.94;5071044;28;19924;-71
2023/11/12 03:40:33;;;;;;;;;;;;;;;-144.99;100.00;52582.63;5075560;28;20371;-72
2023/11/12 03:43:01;;;;;;;;;;;;;;;-144.99;100.00;52590.78;5075868;28;19960;-71
2023/11/12 03:45:28;;;;;;;;;;;;;;;-144.99;100.00;52590.78;5077055;28;19928;-70
2023/11/12 03:47:54;;;;;;;;;;;;;;;-144.99;100.00;52566.31;5062974;28;20412;-70
2023/11/12 03:50:22;;;;;;;;;;;;;;;-144.99;100.00;52582.63;5063578;28;20428;-70
2023/11/12 03:52:49;;;;;;;;;;;;;;;-144.99;100.00;52568.34;5066856;28;20015;-70
2023/11/12 03:55:15;;;;;;;;;;;;;;;-144.99;100.00;52586.69;5079185;28;20121;-70
2023/11/12 03:57:42;;;;;;;;;;;;;;;-144.99;100.00;52578.53;5069932;28;20250;-70
2023/11/12 04:00:09;;;;;;;;;;;;;;;-144.99;100.00;52582.63;5074167;28;19986;-69
2023/11/12 04:02:35;;;;;;;;;;;;;;;-144.99;100.00;52590.78;5071218;28;20388;-71
2023/11/12 04:05:02;;;;;;;;;;;;;;;-144.99;100.00;52586.69;5074575;28;19929;-70
2023/11/12 04:07:30;;;;;;;;;;;;;;;-144.99;100.00;52596.88;5078933;28;19925;-69
2023/11/12 04:09:56;;;;;;;;;;;;;;;-144.99;100.00;52554.09;5068597;28;20031;-70
2023/11/12 04:12:23;;;;;;;;;;;;;;;-144.99;100.00;52545.94;5071340;28;19936;-70
2023/11/12 04:14:49;;;;;;;;;;;;;;;-144.99;100.00;52611.16;5071157;28;19932;-70
2023/11/12 04:17:17;;;;;;;;;;;;;;;-144.99;100.00;52560.19;5062326;28;19928;-71
2023/11/12 04:19:44;;;;;;;;;;;;;;;-144.99;100.00;52603.00;5072717;28;20265;-72
2023/11/12 04:22:11;;;;;;;;;;;;;;;-144.99;100.00;52564.28;5072226;28;19971;-71
2023/11/12 04:24:39;;;;;;;;;;;;;;;-144.99;100.00;52558.16;5078219;28;20007;-70
2023/11/12 04:27:06;;;;;;;;;;;;;;;-144.99;100.00;52594.84;5062984;28;20055;-71
2023/11/12 04:29:32;;;;;;;;;;;;;;;-144.99;100.00;52578.53;5062994;28;19936;-70
2023/11/12 04:32:00;;;;;;;;;;;;;;;-144.99;100.00;52558.16;5068291;28;20199;-71
2023/11/12 04:34:27;;;;;;;;;;;;;;;-144.99;100.00;52570.38;5064261;28;19929;-71
2023/11/12 04:36:54;;;;;;;;;;;;;;;-144.99;100.00;52619.31;5061901;28;19944;-71
2023/11/12 04:39:20;;;;;;;;;;;;;;;-144.99;100.00;52578.53;5059745;28;19924;-71
2023/11/12 04:41:48;;;;;;;;;;;;;;;-144.99;100.00;52554.09;5062867;28;19939;-70
2023/11/12 04:44:16;;;;;;;;;;;;;;;-144.99;100.00;52582.63;5062012;28;20009;-71
2023/11/12 04:46:43;;;;;;;;;;;;;;;-144.99;100.00;52574.47;5062525;28;20017;-70
2023/11/12 04:49:12;;;;;;;;;;;;;;;-144.99;100.00;52558.16;5066984;28;20194;-71
2023/11/12 04:51:38;;;;;;;;;;;;;;;-144.99;100.00;52545.94;5064555;28;19928;-69
2023/11/12 04:54:05;;;;;;;;;;;;;;;-144.99;100.00;52558.16;5063487;28;19968;-67
2023/11/12 04:56:31;;;;;;;;;;;;;;;-144.99;100.00;52574.47;5061499;28;20000;-69
2023/11/12 04:58:59;;;;;;;;;;;;;;;-144.99;100.00;52611.16;5061415;28;20262;-69
2023/11/12 05:01:26;;;;;;;;;;;;;;;-144.99;100.00;52574.47;5061638;28;20264;-69
2023/11/12 05:03:54;;;;;;;;;;;;;;;-144.99;100.00;52550.00;5061745;28;20405;-70
2023/11/12 05:06:25;;;;;;;;;;;;;;;-144.99;100.00;52594.84;5061891;28;19924;-69
2023/11/12 05:08:51;;;;;;;;;;;;;;;-144.99;100.00;52594.84;5060791;28;19937;-71
2023/11/12 05:11:18;;;;;;;;;;;;;;;-144.99;100.00;52598.94;5060694;28;20011;-70
2023/11/12 05:13:44;;;;;;;;;;;;;;;-144.99;100.00;52603.00;5063264;28;19928;-70
2023/11/12 05:16:12;;;;;;;;;;;;;;;-144.99;100.00;52590.78;5060266;28;20418;-71
2023/11/12 05:18:39;;;;;;;;;;;;;;;-144.99;100.00;52574.47;5061273;28;19975;-70
2023/11/12 05:21:06;;;;;;;;;;;;;;;-144.99;100.00;52586.69;5061982;28;20003;-70
2023/11/12 05:23:33;;;;;;;;;;;;;;;-144.99;100.00;52562.25;5061936;28;20018;-69
2023/11/12 05:26:00;;;;;;;;;;;;;;;-144.99;100.00;52578.53;5062552;28;19935;-70
2023/11/12 05:28:27;;;;;;;;;;;;;;;-144.99;100.00;52541.84;5062834;28;20038;-70
2023/11/12 05:30:54;;;;;;;;;;;;;;;-144.99;100.00;52639.69;5071999;28;19951;-69
2023/11/12 05:33:22;;;;;;;;;;;;;;;-144.99;100.00;52603.00;5068475;28;20015;-70
2023/11/12 05:35:49;;;;;;;;;;;;;;;-144.99;100.00;52564.28;5071772;28;19960;-70
2023/11/12 05:38:15;;;;;;;;;;;;;;;-144.99;100.00;52550.00;5066746;28;20307;-68
2023/11/12 05:40:42;;;;;;;;;;;;;;;-144.99;100.00;52562.25;5061524;28;20413;-69
2023/11/12 05:43:10;;;;;;;;;;;;;;;-144.99;100.00;52590.78;5061363;28;20013;-70
2023/11/12 05:45:37;;;;;;;;;;;;;;;-144.99;100.00;52556.13;5064532;28;19935;-70
2023/11/12 05:48:03;;;;;;;;;;;;;;;-144.99;100.00;52560.19;5060935;28;19962;-69
2023/11/12 05:50:31;;;;;;;;;;;;;;;-144.99;100.00;52550.00;5066829;28;19924;-69
2023/11/12 05:52:57;;;;;;;;;;;;;;;-144.99;100.00;52562.25;5069291;28;19924;-68
2023/11/12 05:55:25;;;;;;;;;;;;;;;-144.99;100.00;52621.34;5077443;28;20007;-67
2023/11/12 05:57:51;;;;;;;;;;;;;;;-144.99;100.00;52574.47;5058487;28;19924;-68
2023/11/12 06:00:19;;;;;;;;;;;;;;;-144.99;100.00;52545.94;5069978;28;19964;-68
2023/11/12 06:02:45;;;;;;;;;;;;;;;-144.99;100.00;52566.31;5065711;28;19932;-68
2023/11/12 06:05:12;;;;;;;;;;;;;;;-144.99;100.00;52578.53;5071674;28;20019;-67
2023/11/12 06:07:40;;;;;;;;;;;;;;;-144.99;100.00;52574.47;5074665;28;19935;-71
2023/11/12 06:10:06;;;;;;;;;;;;;;;-144.99;100.00;52560.19;5067126;28;20031;-71
2023/11/12 06:12:33;;;;;;;;;;;;;;;-144.99;100.00;52558.16;5067895;28;20020;-71
2023/11/12 06:14:59;;;;;;;;;;;;;;;-144.99;100.00;52578.53;5077893;28;21089;-70
2023/11/12 06:17:26;;;;;;;;;;;;;;;-144.99;100.00;52572.44;5075439;28;19964;-70
2023/11/12 06:19:52;;;;;;;;;;;;;;;-144.99;100.00;52590.78;5075648;28;19962;-71
2023/11/12 06:22:20;;;;;;;;;;;;;;;-144.99;100.00;52562.25;5074698;28;19924;-71
2023/11/12 06:24:47;;;;;;;;;;;;;;;-144.99;100.00;52594.84;5061935;28;19931;-70
2023/11/12 06:27:14;;;;;;;;;;;;;;;-144.99;100.00;52590.78;5068594;28;20122;-72
2023/11/12 06:29:39;;;;;;;;;;;;;;;-144.99;100.00;52594.84;5067816;28;19924;-71
2023/11/12 06:32:06;;;;;;;;;;;;;;;-144.99;100.00;52611.16;5071954;28;20457;-72
2023/11/12 06:34:34;;;;;;;;;;;;;;;-144.99;100.00;52562.25;5064776;28;19924;-70
2023/11/12 06:37:01;;;;;;;;;;;;;;;-144.99;100.00;52572.44;5065779;28;19928;-72
2023/11/12 06:39:27;;;;;;;;;;;;;;;-144.99;100.00;52550.00;5065536;28;20042;-69
2023/11/12 06:41:55;;;;;;;;;;;;;;;-144.99;100.00;52588.75;5063423;28;20011;-71
2023/11/12 06:44:22;;;;;;;;;;;;;;;-144.99;100.00;52586.69;5065523;28;20016;-71
2023/11/12 06:46:48;;;;;;;;;;;;;;;-144.99;100.00;52594.84;5062270;28;19934;-71
2023/11/12 06:49:14;;;;;;;;;;;;;;;-144.99;100.00;52600.97;5063292;28;19925;-71
2023/11/12 06:51:41;;;;;;;;;;;;;;;-144.99;100.00;52582.63;5063956;28;20036;-70
2023/11/12 06:54:09;;;;;;;;;;;;;;;-144.99;100.00;52603.00;5064085;28;19932;-71
2023/11/12 06:56:36;;;;;;;;;;;;;;;-144.99;100.00;52588.75;5063485;28;19929;-72
2023/11/12 06:59:04;;;;;;;;;;;;;;;-144.99;100.00;52603.00;5063067;28;20051;-71
2023/11/12 07:01:31;;;;;;;;;;;;;;;-144.99;100.00;52562.25;5065592;28;20348;-72
2023/11/12 07:03:58;;;;;;;;;;;;;;;-144.99;100.00;52588.75;5059967;28;20007;-72
2023/11/12 07:06:24;;;;;;;;;;;;;;;-144.99;100.00;52576.50;5056726;28;19940;-71
2023/11/12 07:08:51;;;;;;;;;;;;;;;-144.99;100.00;52545.94;5056310;28;20008;-73
2023/11/12 07:11:17;;;;;;;;;;;;;;;-144.99;100.00;52560.19;5055960;28;20030;-73
2023/11/12 07:13:44;;;;;;;;;;;;;;;-144.99;100.00;52574.47;5054655;28;19928;-72
2023/11/12 07:16:16;;;;;;;;;;;;;;;-144.99;100.00;52594.84;5055220;28;20035;-72
2023/11/12 07:18:43;;;;;;;;;;;;;;;-144.99;100.00;52574.47;5056196;28;20023;-69
2023/11/12 07:21:09;;;;;;;;;;;;;;;-144.99;100.00;52572.44;5056231;28;20020;-70
2023/11/12 07:23:37;;;;;;;;;;;;;;;-144.99;100.00;52580.59;5055330;28;20009;-71
2023/11/12 07:26:03;;;;;;;;;;;;;;;-144.99;100.00;52603.00;5056359;28;20019;-70
2023/11/12 07:28:30;;;;;;;;;;;;;;;-144.99;100.00;52594.84;5065627;28;19986;-69
2023/11/12 07:30:56;;;;;;;;;;;;;;;-144.99;100.00;52570.38;5057153;28;19924;-70
2023/11/12 07:33:24;;;;;;;;;;;;;;;-144.99;100.00;52615.25;5056710;28;20019;-70
2023/11/12 07:35:50;;;;;;;;;;;;;;;-144.99;100.00;52550.00;5055789;28;19933;-68
2023/11/12 07:38:18;;;;;;;;;;;;;;;-144.99;100.00;52596.88;5057882;28;20549;-69
2023/11/12 07:40:44;;;;;;;;;;;;;;;-144.99;100.00;52570.38;5054973;28;19998;-70
2023/11/12 07:43:12;;;;;;;;;;;;;;;-144.99;100.00;52572.44;5054580;28;19972;-70
2023/11/12 07:45:39;;;;;;;;;;;;;;;-144.99;100.00;52576.50;5055026;28;19975;-70
2023/11/12 07:48:04;;;;;;;;;;;;;;;-144.99;100.00;52590.78;5061769;28;20023;-70
2023/11/12 07:50:32;;;;;;;;;;;;;;;-144.99;100.00;52594.84;5071717;28;20004;-68
2023/11/12 07:52:58;;;;;;;;;;;;;;;-144.99;100.00;52586.69;5074062;28;19924;-68
2023/11/12 07:55:25;;;;;;;;;;;;;;;-144.99;100.00;52558.16;5075291;28;20114;-68
2023/11/12 07:57:52;;;;;;;;;;;;;;;-144.99;100.00;52594.84;5068796;28;19928;-68
2023/11/12 08:00:19;;;;;;;;;;;;;;;-144.99;100.00;52574.47;5073130;28;19955;-70
2023/11/12 08:02:47;;;;;;;;;;;;;;;-144.99;100.00;52611.16;5079290;28;19924;-69
2023/11/12 08:05:13;;;;;;;;;;;;;;;-144.99;100.00;52566.31;5093900;28;20022;-73
2023/11/12 08:07:41;;;;;;;;;;;;;;;-144.99;100.00;52570.38;5104576;28;19932;-73
2023/11/12 08:10:08;;;;;;;;;;;;;;;-144.99;100.00;52627.47;5091502;28;19923;-74
2023/11/12 08:12:34;;;;;;;;;;;;;;;-144.99;100.00;52582.63;5095502;28;19980;-73
2023/11/12 08:15:01;;;;;;;;;;;;;;;-144.99;100.00;52574.47;5099641;28;19920;-73
2023/11/12 08:17:28;;;;;;;;;;;;;;;-144.99;100.00;52582.63;5088850;28;19920;-71
2023/11/12 08:19:54;;;;;;;;;;;;;;;-144.99;100.00;52578.53;5086721;28;20095;-73
2023/11/12 08:22:20;;;;;;;;;;;;;;;-144.99;100.00;52578.53;5094609;28;20020;-72
2023/11/12 08:24:48;;;;;;;;;;;;;;;-144.99;100.00;52560.19;5101075;28;20216;-72
2023/11/12 08:27:15;;;;;;;;;;;;;;;-144.99;100.00;52615.25;5096996;28;19988;-74
2023/11/12 08:29:41;;;;;;;;;;;;;;;-144.99;100.00;52519.44;5091837;28;19928;-73
2023/11/12 08:32:08;;;;;;;;;;;;;;;-144.99;100.00;52533.69;5076753;28;19928;-74
2023/11/12 08:34:34;;;;;;;;;;;;;;;-144.99;100.00;52558.16;5058374;28;19932;-72
2023/11/12 08:37:02;;;;;;;;;;;;;;;-144.99;100.00;52566.31;5056280;28;19965;-71
2023/11/12 08:39:29;;;;;;;;;;;;;;;-144.99;100.00;52545.94;5055468;28;20296;-73
2023/11/12 08:41:56;;;;;;;;;;;;;;;-144.99;100.00;52554.09;5065929;28;19935;-73
2023/11/12 08:44:23;;;;;;;;;;;;;;;-144.99;100.00;52556.13;5056200;28;19936;-73
2023/11/12 08:46:49;;;;;;;;;;;;;;;-144.99;100.00;52560.19;5055667;28;19928;-73
2023/11/12 08:49:16;;;;;;;;;;;;;;;-144.99;100.00;52558.16;5055604;28;19932;-73
2023/11/12 08:51:42;;;;;;;;;;;;;;;-144.99;100.00;52590.78;5055590;28;20067;-71
2023/11/12 08:54:09;;;;;;;;;;;;;;;-144.99;100.00;52533.69;5057196;28;20034;-69
2023/11/12 08:56:35;;;;;;;;;;;;;;;-144.99;100.00;52562.25;5058177;28;20403;-71
2023/11/12 08:59:03;;;;;;;;;;;;;;;-144.99;100.00;52562.25;5060582;28;20040;-72
2023/11/12 09:01:33;;;;;;;;;;;;;;;-144.99;100.00;52603.00;5059547;28;19933;-70
2023/11/12 09:03:59;;;;;;;;;;;;;;;-144.99;100.00;52566.31;5060223;28;20043;-71
2023/11/12 09:06:26;;;;;;;;;;;;;;;-144.99;100.00;52615.25;5060175;28;20429;-70
2023/11/12 09:08:53;;;;;;;;;;;;;;;-144.99;100.00;52580.59;5061702;28;19996;-71
2023/11/12 09:11:19;;;;;;;;;;;;;;;-144.99;100.00;52641.72;5060724;28;19924;-72
2023/11/12 09:13:46;;;;;;;;;;;;;;;-144.99;100.00;52574.47;5061785;28;19928;-72
2023/11/12 09:16:14;;;;;;;;;;;;;;;-144.99;100.00;52550.00;5061491;28;19955;-71
2023/11/12 09:18:41;;;;;;;;;;;;;;;-144.99;100.00;52554.09;5060281;28;19928;-69
2023/11/12 09:21:07;;;;;;;;;;;;;;;-144.99;100.00;52582.63;5061489;28;20388;-71
2023/11/12 09:23:34;;;;;;;;;;;;;;;-144.99;100.00;52605.03;5062558;28;19968;-71
2023/11/12 09:26:00;;;;;;;;;;;;;;;-144.99;100.00;52564.28;5060730;28;20536;-71
2023/11/12 09:28:27;;;;;;;;;;;;;;;-144.99;100.00;52574.47;5062199;28;20399;-71
2023/11/12 09:30:53;;;;;;;;;;;;;;;-144.99;100.00;52586.69;5073852;28;19931;-71
2023/11/12 09:33:21;;;;;;;;;;;;;;;-144.99;100.00;52594.84;5080176;28;19955;-69
2023/11/12 09:35:48;;;;;;;;;;;;;;;-144.99;100.00;52568.34;5069745;28;20016;-70
2023/11/12 09:38:14;;;;;;;;;;;;;;;-144.99;100.00;52517.41;5066244;28;19924;-72
2023/11/12 09:40:42;;;;;;;;;;;;;;;-144.99;100.00;52582.63;5065237;28;19929;-71
2023/11/12 09:43:09;;;;;;;;;;;;;;;-144.99;100.00;52598.94;5072468;28;19929;-71
2023/11/12 09:45:39;;;;;;;;;;;;;;;-144.99;100.00;52576.50;5081394;28;20027;-71
2023/11/12 09:48:10;;;;;;;;;;;;;;;-144.99;100.00;52578.53;5070616;28;19964;-71
2023/11/12 09:50:38;;;;;;;;;;;;;;;-144.99;100.00;52562.25;5080158;28;19928;-72
2023/11/12 09:53:06;;;;;;;;;;;;;;;-144.99;100.00;52586.69;5076494;28;20258;-71
2023/11/12 09:55:32;;;;;;;;;;;;;;;-144.99;100.00;52570.38;5079253;28;19940;-71
2023/11/12 09:58:01;;;;;;;;;;;;;;;-144.99;100.00;52554.09;5073520;28;20360;-71
2023/11/12 10:00:28;;;;;;;;;;;;;;;-144.99;100.00;52566.31;5080768;28;19968;-72
2023/11/12 10:02:55;;;;;;;;;;;;;;;-144.99;100.00;52586.69;5075396;28;19978;-72
2023/11/12 10:05:23;;;;;;;;;;;;;;;-144.99;100.00;52562.25;5082919;28;19924;-71
2023/11/12 10:07:51;;;;;;;;;;;;;;;-144.99;100.00;52578.53;5075019;28;20384;-71
2023/11/12 10:10:24;;;;;;;;;;;;;;;-144.99;100.00;52564.28;5072202;28;19964;-70
2023/11/12 10:12:52;;;;;;;;;;;;;;;-144.99;100.00;52537.78;5071633;28;19924;-70
2023/11/12 10:15:22;;;;;;;;;;;;;;;-144.99;100.00;52533.69;5079251;28;19925;-70
2023/11/12 10:17:48;;;;;;;;;;;;;;;-144.99;100.00;52541.84;5072542;28;20388;-69
2023/11/12 10:20:19;;;;;;;;;;;;;;;-144.99;100.00;52582.63;5067975;28;20019;-70
2023/11/12 10:22:46;;;;;;;;;;;;;;;-144.99;100.00;52562.25;5079091;28;20007;-70
2023/11/12 10:25:14;;;;;;;;;;;;;;;-144.99;100.00;52556.13;5075603;28;20106;-71
2023/11/12 10:27:52;;;;;;;;;;;;;;;-144.99;100.00;52586.69;5082867;28;19925;-71
2023/11/12 10:30:19;;;;;;;;;;;;;;;-144.99;100.00;52582.63;5072014;28;20007;-72
2023/11/12 10:32:46;;;;;;;;;;;;;;;-144.99;100.00;52533.69;5074948;28;20068;-72
2023/11/12 10:35:24;;;;;;;;;;;;;;;-144.99;100.00;52541.84;5073146;28;20031;-71
2023/11/12 10:37:54;;;;;;;;;;;;;;;-144.99;100.00;52533.69;5077253;28;19928;-70
2023/11/12 10:40:22;;;;;;;;;;;;;;;-144.99;100.00;52533.69;5062995;28;19977;-71
2023/11/12 10:42:50;;;;;;;;;;;;;;;-144.99;100.00;52582.63;5078157;28;20019;-71
2023/11/12 10:45:17;;;;;;;;;;;;;;;-144.99;100.00;52529.63;5072092;28;19975;-70
2023/11/12 10:47:46;;;;;;;;;;;;;;;-144.99;100.00;52611.16;5080629;28;20316;-70
2023/11/12 10:50:15;;;;;;;;;;;;;;;-144.99;100.00;52570.38;5074695;28;20027;-71
2023/11/12 10:52:42;;;;;;;;;;;;;;;-144.99;100.00;52562.25;5073617;28;19940;-70
2023/11/12 10:55:09;;;;;;;;;;;;;;;-144.99;100.00;52582.63;5071003;28;19924;-71
2023/11/12 10:57:41;;;;;;;;;;;;;;;-144.99;100.00;52570.38;5074624;28;19940;-71
2023/11/12 11:00:10;;;;;;;;;;;;;;;-144.99;100.00;52558.16;5076045;28;20341;-72
2023/11/12 11:02:37;;;;;;;;;;;;;;;-144.99;100.00;52562.25;5076081;28;20023;-72
2023/11/12 11:05:05;;;;;;;;;;;;;;;-144.99;100.00;52558.16;5078117;28;19959;-71
2023/11/12 11:07:31;;;;;;;;;;;;;;;-144.99;100.00;52554.09;5068545;28;19990;-73
2023/11/12 11:09:58;;;;;;;;;;;;;;;-144.99;100.00;52600.97;5076469;28;19978;-71
2023/11/12 11:12:24;;;;;;;;;;;;;;;-144.99;100.00;52584.66;5069992;28;19987;-71
2023/11/12 11:14:52;;;;;;;;;;;;;;;-144.99;100.00;52586.69;5079106;28;20376;-70
2023/11/12 11:17:35;;;;;;;;;;;;;;;-144.99;100.00;52578.53;5069773;28;19940;-71
2023/11/12 11:20:02;;;;;;;;;;;;;;;-144.99;100.00;52631.53;5072913;28;20011;-71
2023/11/12 11:22:29;;;;;;;;;;;;;;;-144.99;100.00;52574.47;5077732;28;19925;-72
2023/11/12 11:24:56;;;;;;;;;;;;;;;-144.99;100.00;52566.31;5076299;28;19924;-72
2023/11/12 11:27:24;;;;;;;;;;;;;;;-144.99;100.00;52525.56;5073068;28;19989;-72
2023/11/12 11:30:08;;;;;;;;;;;;;;;-144.99;100.00;52594.84;5083081;28;19928;-72
2023/11/12 11:32:35;;;;;;;;;;;;;;;-144.99;100.00;52552.03;5072097;28;19951;-72
2023/11/12 11:35:02;;;;;;;;;;;;;;;-144.99;100.00;52566.31;5070423;28;20263;-71
2023/11/12 11:37:44;;;;;;;;;;;;;;;-144.99;100.00;52550.00;5077774;28;19928;-73
2023/11/12 11:40:25;;;;;;;;;;;;;;;-144.99;100.00;52558.16;5067410;28;19924;-72
2023/11/12 11:43:06;;;;;;;;;;;;;;;-144.99;100.00;52592.81;5072784;28;19955;-73
2023/11/12 11:45:54;;;;;;;;;;;;;;;-144.99;100.00;52554.09;5062632;28;19924;-73
2023/11/12 11:48:20;;;;;;;;;;;;;;;-144.99;100.00;52558.16;5069856;28;20028;-72
2023/11/12 11:50:47;;;;;;;;;;;;;;;-144.99;100.00;52550.00;5071633;28;20190;-73
2023/11/12 11:53:14;;;;;;;;;;;;;;;-144.99;100.00;52558.16;5069260;28;20172;-72
2023/11/12 11:55:45;;;;;;;;;;;;;;;-144.99;100.00;52529.63;5072874;28;20007;-72
2023/11/12 11:58:12;;;;;;;;;;;;;;;-144.99;100.00;52566.31;5068359;28;19975;-71
2023/11/12 12:00:56;;;;;;;;;;;;;;;-144.99;100.00;52537.78;5073847;28;20018;-72
2023/11/12 12:03:25;;;;;;;;;;;;;;;-144.99;100.00;52566.31;5061137;28;19924;-72
2023/11/12 12:05:52;;;;;;;;;;;;;;;-144.99;100.00;52576.50;5073987;28;19968;-74
2023/11/12 12:08:18;;;;;;;;;;;;;;;-144.99;100.00;52590.78;5075826;28;20018;-73
2023/11/12 12:10:45;;;;;;;;;;;;;;;-144.99;100.00;52558.16;5073548;28;19970;-74
2023/11/12 12:13:12;;;;;;;;;;;;;;;-144.99;100.00;52639.69;5067189;28;19981;-74
2023/11/12 12:15:38;;;;;;;;;;;;;;;-144.99;100.00;52603.00;5070484;28;20273;-72
2023/11/12 12:18:18;;;;;;;;;;;;;;;-144.99;100.00;52578.53;5064704;28;19964;-74
2023/11/12 12:20:45;;;;;;;;;;;;;;;-144.99;100.00;52554.09;5070047;28;20021;-73